Carr Creek, Kentucky
Current Conditions -  °F | °C
As of 10:15 PM on Saturday 20 Dec 2014 (Local Time) from KLNP Reporting Station
Overcast Overcast  
Wind Chill: 34°   Ceiling: 2800
Heat Index: 34°   Visibility: 10mi
Dew Point: 30°   Wind: 3mph
Humidity: 87%   Direction: 30°NNE
Pressure: 30.2"   Gusts: NA
Location:  37.2561°N, 82.8707°W
Report Text: KLNP 210315Z AUTO 03003KT 10SM SCT012 OVC028 01/M01 A3020 RMK AO2
Loading
Personal Weather Stations






























Interactive Weather Map New forecast layout! Learn more

10-Day Weather Forecast

Advertisements
Track Severe Weather on mobile